Abdon Batista, Brazil
Current Conditions -  °F | °C
As of 3:00 PM on Saturday 25 Oct 2014 (Local Time) from SBPF Reporting Station
Clear Clear  
Wind Chill: 82°   Ceiling: Unl
Heat Index: 83°   Visibility: 6mi
Dew Point: 63°   Wind: 8mph
Humidity: 51%   Direction: 260°W
Pressure: 29.94"   Gusts: NA
Location:  27.61°S, 51.02°W
Report Text: SBPF 251700Z 26007KT CAVOK 28/17 Q1014
Loading
Personal Weather Stations






























Interactive Weather Map
Tropical Storm Tracking
New forecast layout! Learn more

10-Day Weather Forecast

Advertisements
Track Severe Weather on mobile